sensor_id;sensor_type;location;lat;lon;timestamp;P1;durP1;ratioP1;P2;durP2;ratioP2
3633;SDS011;1833;42.718;23.270;2023-04-24T00:00:14;27.60;;;25.30;;
3633;SDS011;1833;42.718;23.270;2023-04-24T00:02:43;28.27;;;25.67;;
3633;SDS011;1833;42.718;23.270;2023-04-24T00:05:12;27.80;;;25.47;;
3633;SDS011;1833;42.718;23.270;2023-04-24T00:07:39;27.67;;;25.13;;
3633;SDS011;1833;42.718;23.270;2023-04-24T00:10:08;28.33;;;25.80;;
3633;SDS011;1833;42.718;23.270;2023-04-24T00:12:36;30.87;;;25.93;;
3633;SDS011;1833;42.718;23.270;2023-04-24T00:15:03;31.90;;;25.90;;
3633;SDS011;1833;42.718;23.270;2023-04-24T00:17:31;29.40;;;26.23;;
3633;SDS011;1833;42.718;23.270;2023-04-24T00:19:58;33.53;;;28.23;;
3633;SDS011;1833;42.718;23.270;2023-04-24T00:22:27;31.47;;;28.10;;
3633;SDS011;1833;42.718;23.270;2023-04-24T00:24:54;29.23;;;26.40;;
3633;SDS011;1833;42.718;23.270;2023-04-24T00:27:23;30.67;;;27.10;;
3633;SDS011;1833;42.718;23.270;2023-04-24T00:29:50;30.77;;;27.47;;
3633;SDS011;1833;42.718;23.270;2023-04-24T00:32:17;28.90;;;26.10;;
3633;SDS011;1833;42.718;23.270;2023-04-24T00:34:45;30.10;;;27.20;;
3633;SDS011;1833;42.718;23.270;2023-04-24T00:37:12;28.77;;;25.80;;
3633;SDS011;1833;42.718;23.270;2023-04-24T00:39:39;29.47;;;26.80;;
3633;SDS011;1833;42.718;23.270;2023-04-24T00:42:06;30.57;;;27.63;;
3633;SDS011;1833;42.718;23.270;2023-04-24T00:44:35;30.17;;;27.00;;
3633;SDS011;1833;42.718;23.270;2023-04-24T00:47:02;29.63;;;26.90;;
3633;SDS011;1833;42.718;23.270;2023-04-24T00:49:30;28.77;;;26.07;;
3633;SDS011;1833;42.718;23.270;2023-04-24T00:51:57;28.83;;;26.13;;
3633;SDS011;1833;42.718;23.270;2023-04-24T00:54:24;30.50;;;27.80;;
3633;SDS011;1833;42.718;23.270;2023-04-24T00:56:52;29.40;;;26.70;;
3633;SDS011;1833;42.718;23.270;2023-04-24T00:59:19;31.13;;;28.00;;
3633;SDS011;1833;42.718;23.270;2023-04-24T01:01:48;31.90;;;28.73;;
3633;SDS011;1833;42.718;23.270;2023-04-24T01:04:15;32.40;;;29.43;;
3633;SDS011;1833;42.718;23.270;2023-04-24T01:06:44;31.37;;;28.43;;
3633;SDS011;1833;42.718;23.270;2023-04-24T01:09:12;42.10;;;29.00;;
3633;SDS011;1833;42.718;23.270;2023-04-24T01:11:39;33.20;;;30.30;;
3633;SDS011;1833;42.718;23.270;2023-04-24T01:14:08;34.20;;;31.03;;
3633;SDS011;1833;42.718;23.270;2023-04-24T01:16:35;34.67;;;30.90;;
3633;SDS011;1833;42.718;23.270;2023-04-24T01:19:05;32.60;;;29.27;;
3633;SDS011;1833;42.718;23.270;2023-04-24T01:21:33;35.13;;;31.93;;
3633;SDS011;1833;42.718;23.270;2023-04-24T01:24:04;33.57;;;30.50;;
3633;SDS011;1833;42.718;23.270;2023-04-24T01:26:32;32.80;;;29.97;;
3633;SDS011;1833;42.718;23.270;2023-04-24T01:29:00;32.23;;;29.30;;
3633;SDS011;1833;42.718;23.270;2023-04-24T01:31:27;37.03;;;28.80;;
3633;SDS011;1833;42.718;23.270;2023-04-24T01:33:55;33.40;;;30.40;;
3633;SDS011;1833;42.718;23.270;2023-04-24T01:36:23;30.50;;;27.87;;
3633;SDS011;1833;42.718;23.270;2023-04-24T01:38:52;32.83;;;29.37;;
3633;SDS011;1833;42.718;23.270;2023-04-24T01:41:21;30.83;;;28.07;;
3633;SDS011;1833;42.718;23.270;2023-04-24T01:43:48;31.57;;;28.77;;
3633;SDS011;1833;42.718;23.270;2023-04-24T01:46:16;31.50;;;28.30;;
3633;SDS011;1833;42.718;23.270;2023-04-24T01:48:44;31.03;;;28.53;;
3633;SDS011;1833;42.718;23.270;2023-04-24T01:51:11;31.83;;;28.83;;
3633;SDS011;1833;42.718;23.270;2023-04-24T01:53:39;34.30;;;31.00;;
3633;SDS011;1833;42.718;23.270;2023-04-24T01:56:06;28.50;;;26.00;;
3633;SDS011;1833;42.718;23.270;2023-04-24T01:58:35;46.37;;;26.20;;
3633;SDS011;1833;42.718;23.270;2023-04-24T02:01:03;29.40;;;26.80;;
3633;SDS011;1833;42.718;23.270;2023-04-24T02:03:30;28.53;;;26.23;;
3633;SDS011;1833;42.718;23.270;2023-04-24T02:05:57;29.23;;;26.40;;
3633;SDS011;1833;42.718;23.270;2023-04-24T02:08:24;29.27;;;26.57;;
3633;SDS011;1833;42.718;23.270;2023-04-24T02:10:51;30.80;;;27.83;;
3633;SDS011;1833;42.718;23.270;2023-04-24T02:13:19;31.77;;;28.87;;
3633;SDS011;1833;42.718;23.270;2023-04-24T02:15:47;31.60;;;28.50;;
3633;SDS011;1833;42.718;23.270;2023-04-24T02:18:14;31.43;;;28.43;;
3633;SDS011;1833;42.718;23.270;2023-04-24T02:20:42;31.67;;;28.73;;
3633;SDS011;1833;42.718;23.270;2023-04-24T02:23:09;30.80;;;28.30;;
3633;SDS011;1833;42.718;23.270;2023-04-24T02:25:36;29.40;;;26.80;;
3633;SDS011;1833;42.718;23.270;2023-04-24T02:28:03;31.47;;;28.67;;
3633;SDS011;1833;42.718;23.270;2023-04-24T02:30:31;31.60;;;28.67;;
3633;SDS011;1833;42.718;23.270;2023-04-24T02:33:00;31.60;;;28.80;;
3633;SDS011;1833;42.718;23.270;2023-04-24T02:35:27;32.90;;;29.70;;
3633;SDS011;1833;42.718;23.270;2023-04-24T02:37:54;32.87;;;29.73;;
3633;SDS011;1833;42.718;23.270;2023-04-24T02:40:22;32.50;;;29.43;;
3633;SDS011;1833;42.718;23.270;2023-04-24T02:42:49;30.67;;;27.67;;
3633;SDS011;1833;42.718;23.270;2023-04-24T02:45:16;29.87;;;27.10;;
3633;SDS011;1833;42.718;23.270;2023-04-24T02:47:44;31.93;;;28.83;;
3633;SDS011;1833;42.718;23.270;2023-04-24T02:50:12;30.63;;;27.83;;
3633;SDS011;1833;42.718;23.270;2023-04-24T02:52:39;30.30;;;27.33;;
3633;SDS011;1833;42.718;23.270;2023-04-24T02:55:07;28.40;;;25.70;;
3633;SDS011;1833;42.718;23.270;2023-04-24T02:57:34;31.03;;;27.87;;
3633;SDS011;1833;42.718;23.270;2023-04-24T03:00:01;28.40;;;26.00;;
3633;SDS011;1833;42.718;23.270;2023-04-24T03:02:31;30.13;;;27.63;;
3633;SDS011;1833;42.718;23.270;2023-04-24T03:05:00;31.70;;;28.60;;
3633;SDS011;1833;42.718;23.270;2023-04-24T03:07:29;30.10;;;27.50;;
3633;SDS011;1833;42.718;23.270;2023-04-24T03:09:57;29.17;;;26.50;;
3633;SDS011;1833;42.718;23.270;2023-04-24T03:12:24;29.53;;;26.97;;
3633;SDS011;1833;42.718;23.270;2023-04-24T03:14:51;29.77;;;27.30;;
3633;SDS011;1833;42.718;23.270;2023-04-24T03:17:19;31.10;;;28.07;;
3633;SDS011;1833;42.718;23.270;2023-04-24T03:19:46;29.77;;;27.20;;
3633;SDS011;1833;42.718;23.270;2023-04-24T03:22:13;30.90;;;27.90;;
3633;SDS011;1833;42.718;23.270;2023-04-24T03:24:42;31.03;;;28.23;;
3633;SDS011;1833;42.718;23.270;2023-04-24T03:27:09;34.10;;;30.77;;
3633;SDS011;1833;42.718;23.270;2023-04-24T03:29:36;32.80;;;29.30;;
3633;SDS011;1833;42.718;23.270;2023-04-24T03:32:03;35.03;;;30.90;;
3633;SDS011;1833;42.718;23.270;2023-04-24T03:34:31;30.87;;;27.77;;
3633;SDS011;1833;42.718;23.270;2023-04-24T03:36:58;31.27;;;28.40;;
3633;SDS011;1833;42.718;23.270;2023-04-24T03:39:25;32.87;;;29.47;;
3633;SDS011;1833;42.718;23.270;2023-04-24T03:41:54;31.47;;;28.43;;
3633;SDS011;1833;42.718;23.270;2023-04-24T03:44:21;31.47;;;28.40;;
3633;SDS011;1833;42.718;23.270;2023-04-24T03:46:48;28.60;;;26.10;;
3633;SDS011;1833;42.718;23.270;2023-04-24T03:49:15;30.97;;;27.87;;
3633;SDS011;1833;42.718;23.270;2023-04-24T03:51:43;29.53;;;26.93;;
3633;SDS011;1833;42.718;23.270;2023-04-24T03:54:10;29.97;;;26.77;;
3633;SDS011;1833;42.718;23.270;2023-04-24T03:56:37;30.03;;;27.13;;
3633;SDS011;1833;42.718;23.270;2023-04-24T03:59:06;31.80;;;29.00;;
3633;SDS011;1833;42.718;23.270;2023-04-24T04:01:33;35.93;;;28.30;;
3633;SDS011;1833;42.718;23.270;2023-04-24T04:04:02;34.07;;;27.40;;
3633;SDS011;1833;42.718;23.270;2023-04-24T04:06:29;30.40;;;27.30;;
3633;SDS011;1833;42.718;23.270;2023-04-24T04:08:56;32.33;;;28.37;;
3633;SDS011;1833;42.718;23.270;2023-04-24T04:11:24;28.47;;;25.87;;
3633;SDS011;1833;42.718;23.270;2023-04-24T04:13:51;30.63;;;27.33;;
3633;SDS011;1833;42.718;23.270;2023-04-24T04:16:20;31.27;;;27.83;;
3633;SDS011;1833;42.718;23.270;2023-04-24T04:18:47;32.70;;;28.00;;
3633;SDS011;1833;42.718;23.270;2023-04-24T04:21:14;34.33;;;28.00;;
3633;SDS011;1833;42.718;23.270;2023-04-24T04:23:42;29.60;;;26.50;;
3633;SDS011;1833;42.718;23.270;2023-04-24T04:26:09;31.80;;;28.37;;
3633;SDS011;1833;42.718;23.270;2023-04-24T04:28:38;32.47;;;29.47;;
3633;SDS011;1833;42.718;23.270;2023-04-24T04:31:06;37.67;;;27.57;;
3633;SDS011;1833;42.718;23.270;2023-04-24T04:33:35;32.90;;;28.10;;
3633;SDS011;1833;42.718;23.270;2023-04-24T04:36:04;35.50;;;27.57;;
3633;SDS011;1833;42.718;23.270;2023-04-24T04:38:31;40.70;;;29.10;;
3633;SDS011;1833;42.718;23.270;2023-04-24T04:41:00;34.47;;;29.53;;
3633;SDS011;1833;42.718;23.270;2023-04-24T04:43:27;33.03;;;28.77;;
3633;SDS011;1833;42.718;23.270;2023-04-24T04:45:56;36.30;;;28.27;;
3633;SDS011;1833;42.718;23.270;2023-04-24T04:48:25;34.63;;;28.70;;
3633;SDS011;1833;42.718;23.270;2023-04-24T04:50:55;32.47;;;29.10;;
3633;SDS011;1833;42.718;23.270;2023-04-24T04:53:22;35.57;;;30.47;;
3633;SDS011;1833;42.718;23.270;2023-04-24T04:55:49;32.47;;;29.03;;
3633;SDS011;1833;42.718;23.270;2023-04-24T04:58:16;31.50;;;28.57;;
3633;SDS011;1833;42.718;23.270;2023-04-24T05:00:44;33.53;;;30.13;;
3633;SDS011;1833;42.718;23.270;2023-04-24T05:03:11;35.63;;;29.77;;
3633;SDS011;1833;42.718;23.270;2023-04-24T05:05:38;36.97;;;31.50;;
3633;SDS011;1833;42.718;23.270;2023-04-24T05:08:07;37.27;;;30.30;;
3633;SDS011;1833;42.718;23.270;2023-04-24T05:10:35;34.03;;;28.47;;
3633;SDS011;1833;42.718;23.270;2023-04-24T05:13:02;37.43;;;29.30;;
3633;SDS011;1833;42.718;23.270;2023-04-24T05:15:29;33.77;;;29.90;;
3633;SDS011;1833;42.718;23.270;2023-04-24T05:17:57;32.40;;;29.03;;
3633;SDS011;1833;42.718;23.270;2023-04-24T05:20:24;37.87;;;28.70;;
3633;SDS011;1833;42.718;23.270;2023-04-24T05:22:51;33.70;;;27.80;;
3633;SDS011;1833;42.718;23.270;2023-04-24T05:25:20;35.17;;;29.90;;
3633;SDS011;1833;42.718;23.270;2023-04-24T05:27:47;31.30;;;28.20;;
3633;SDS011;1833;42.718;23.270;2023-04-24T05:30:14;38.40;;;29.33;;
3633;SDS011;1833;42.718;23.270;2023-04-24T05:32:42;32.77;;;29.33;;
3633;SDS011;1833;42.718;23.270;2023-04-24T05:35:09;31.87;;;28.47;;
3633;SDS011;1833;42.718;23.270;2023-04-24T05:37:37;32.83;;;29.63;;
3633;SDS011;1833;42.718;23.270;2023-04-24T05:40:04;30.80;;;27.63;;
3633;SDS011;1833;42.718;23.270;2023-04-24T05:42:33;31.53;;;28.40;;
3633;SDS011;1833;42.718;23.270;2023-04-24T05:45:00;31.20;;;28.20;;
3633;SDS011;1833;42.718;23.270;2023-04-24T05:47:27;32.77;;;29.53;;
3633;SDS011;1833;42.718;23.270;2023-04-24T05:49:55;33.93;;;29.83;;
3633;SDS011;1833;42.718;23.270;2023-04-24T05:52:22;34.00;;;28.00;;
3633;SDS011;1833;42.718;23.270;2023-04-24T05:54:49;39.13;;;29.60;;
3633;SDS011;1833;42.718;23.270;2023-04-24T05:57:16;36.07;;;29.73;;
3633;SDS011;1833;42.718;23.270;2023-04-24T05:59:45;31.60;;;28.70;;
3633;SDS011;1833;42.718;23.270;2023-04-24T06:02:12;59.33;;;42.80;;
3633;SDS011;1833;42.718;23.270;2023-04-24T06:04:39;40.70;;;34.83;;
3633;SDS011;1833;42.718;23.270;2023-04-24T06:07:07;52.83;;;42.87;;
3633;SDS011;1833;42.718;23.270;2023-04-24T06:09:34;59.43;;;49.40;;
3633;SDS011;1833;42.718;23.270;2023-04-24T06:12:01;32.70;;;29.40;;
3633;SDS011;1833;42.718;23.270;2023-04-24T06:14:29;36.90;;;32.87;;
3633;SDS011;1833;42.718;23.270;2023-04-24T06:16:57;56.40;;;44.13;;
3633;SDS011;1833;42.718;23.270;2023-04-24T06:19:25;43.23;;;38.90;;
3633;SDS011;1833;42.718;23.270;2023-04-24T06:21:52;36.23;;;32.47;;
3633;SDS011;1833;42.718;23.270;2023-04-24T06:24:19;38.47;;;34.53;;
3633;SDS011;1833;42.718;23.270;2023-04-24T06:26:46;39.43;;;35.30;;
3633;SDS011;1833;42.718;23.270;2023-04-24T06:29:14;36.53;;;32.30;;
3633;SDS011;1833;42.718;23.270;2023-04-24T06:31:41;47.53;;;39.10;;
3633;SDS011;1833;42.718;23.270;2023-04-24T06:34:10;38.80;;;34.80;;
3633;SDS011;1833;42.718;23.270;2023-04-24T06:36:37;39.10;;;35.13;;
3633;SDS011;1833;42.718;23.270;2023-04-24T06:39:04;40.07;;;32.57;;
3633;SDS011;1833;42.718;23.270;2023-04-24T06:41:32;42.70;;;32.67;;
3633;SDS011;1833;42.718;23.270;2023-04-24T06:43:59;37.13;;;32.10;;
3633;SDS011;1833;42.718;23.270;2023-04-24T06:46:27;42.43;;;32.23;;
3633;SDS011;1833;42.718;23.270;2023-04-24T06:48:54;35.53;;;31.83;;
3633;SDS011;1833;42.718;23.270;2023-04-24T06:51:23;34.53;;;31.20;;
3633;SDS011;1833;42.718;23.270;2023-04-24T06:53:51;38.67;;;32.80;;
3633;SDS011;1833;42.718;23.270;2023-04-24T06:56:18;41.60;;;32.10;;
3633;SDS011;1833;42.718;23.270;2023-04-24T06:58:46;34.20;;;30.43;;
3633;SDS011;1833;42.718;23.270;2023-04-24T07:01:13;38.10;;;31.13;;
3633;SDS011;1833;42.718;23.270;2023-04-24T07:03:41;34.83;;;31.17;;
3633;SDS011;1833;42.718;23.270;2023-04-24T07:06:08;41.53;;;31.17;;
3633;SDS011;1833;42.718;23.270;2023-04-24T07:08:37;37.70;;;31.73;;
3633;SDS011;1833;42.718;23.270;2023-04-24T07:11:06;42.27;;;31.63;;
3633;SDS011;1833;42.718;23.270;2023-04-24T07:13:34;33.83;;;30.10;;
3633;SDS011;1833;42.718;23.270;2023-04-24T07:16:01;33.47;;;30.37;;
3633;SDS011;1833;42.718;23.270;2023-04-24T07:18:28;35.33;;;30.27;;
3633;SDS011;1833;42.718;23.270;2023-04-24T07:20:55;32.80;;;29.40;;
3633;SDS011;1833;42.718;23.270;2023-04-24T07:23:23;35.60;;;30.87;;
3633;SDS011;1833;42.718;23.270;2023-04-24T07:25:51;41.20;;;32.60;;
3633;SDS011;1833;42.718;23.270;2023-04-24T07:28:19;33.70;;;30.37;;
3633;SDS011;1833;42.718;23.270;2023-04-24T07:30:46;33.40;;;30.37;;
3633;SDS011;1833;42.718;23.270;2023-04-24T07:33:13;33.60;;;30.40;;
3633;SDS011;1833;42.718;23.270;2023-04-24T07:35:40;33.93;;;30.63;;
3633;SDS011;1833;42.718;23.270;2023-04-24T07:38:07;35.57;;;31.37;;
3633;SDS011;1833;42.718;23.270;2023-04-24T07:40:35;37.03;;;33.10;;
3633;SDS011;1833;42.718;23.270;2023-04-24T07:43:03;35.83;;;32.33;;
3633;SDS011;1833;42.718;23.270;2023-04-24T07:45:31;35.43;;;31.97;;
3633;SDS011;1833;42.718;23.270;2023-04-24T07:48:01;38.60;;;32.63;;
3633;SDS011;1833;42.718;23.270;2023-04-24T07:50:28;34.70;;;31.30;;
3633;SDS011;1833;42.718;23.270;2023-04-24T07:52:55;41.67;;;33.87;;
3633;SDS011;1833;42.718;23.270;2023-04-24T07:55:28;36.43;;;32.23;;
3633;SDS011;1833;42.718;23.270;2023-04-24T07:57:59;34.27;;;30.80;;
3633;SDS011;1833;42.718;23.270;2023-04-24T08:00:31;34.20;;;30.80;;
3633;SDS011;1833;42.718;23.270;2023-04-24T08:02:59;32.57;;;29.47;;
3633;SDS011;1833;42.718;23.270;2023-04-24T08:05:26;35.67;;;32.07;;
3633;SDS011;1833;42.718;23.270;2023-04-24T08:07:56;33.80;;;30.50;;
3633;SDS011;1833;42.718;23.270;2023-04-24T08:10:23;33.90;;;30.70;;
3633;SDS011;1833;42.718;23.270;2023-04-24T08:12:53;34.40;;;31.30;;
3633;SDS011;1833;42.718;23.270;2023-04-24T08:15:22;34.57;;;31.03;;
3633;SDS011;1833;42.718;23.270;2023-04-24T08:17:51;42.90;;;34.37;;
3633;SDS011;1833;42.718;23.270;2023-04-24T08:20:18;34.27;;;30.70;;
3633;SDS011;1833;42.718;23.270;2023-04-24T08:22:45;33.07;;;29.87;;
3633;SDS011;1833;42.718;23.270;2023-04-24T08:25:14;41.33;;;32.70;;
3633;SDS011;1833;42.718;23.270;2023-04-24T08:27:41;33.37;;;30.30;;
3633;SDS011;1833;42.718;23.270;2023-04-24T08:30:08;33.37;;;29.73;;
3633;SDS011;1833;42.718;23.270;2023-04-24T08:32:36;33.77;;;30.30;;
3633;SDS011;1833;42.718;23.270;2023-04-24T08:35:05;33.87;;;30.67;;
3633;SDS011;1833;42.718;23.270;2023-04-24T08:37:34;33.60;;;30.43;;
3633;SDS011;1833;42.718;23.270;2023-04-24T08:40:01;36.50;;;31.60;;
3633;SDS011;1833;42.718;23.270;2023-04-24T08:42:32;33.47;;;30.37;;
3633;SDS011;1833;42.718;23.270;2023-04-24T08:45:00;33.37;;;30.27;;
3633;SDS011;1833;42.718;23.270;2023-04-24T08:47:28;39.60;;;34.20;;
3633;SDS011;1833;42.718;23.270;2023-04-24T08:49:56;39.53;;;31.93;;
3633;SDS011;1833;42.718;23.270;2023-04-24T08:52:26;34.90;;;31.57;;
3633;SDS011;1833;42.718;23.270;2023-04-24T08:54:54;35.10;;;31.73;;
3633;SDS011;1833;42.718;23.270;2023-04-24T08:57:21;33.50;;;30.40;;
3633;SDS011;1833;42.718;23.270;2023-04-24T08:59:49;33.23;;;29.57;;
3633;SDS011;1833;42.718;23.270;2023-04-24T09:02:17;33.13;;;29.77;;
3633;SDS011;1833;42.718;23.270;2023-04-24T09:04:44;36.03;;;31.23;;
3633;SDS011;1833;42.718;23.270;2023-04-24T09:07:12;33.80;;;30.50;;
3633;SDS011;1833;42.718;23.270;2023-04-24T09:09:43;48.70;;;41.00;;
3633;SDS011;1833;42.718;23.270;2023-04-24T09:12:11;34.20;;;30.93;;
3633;SDS011;1833;42.718;23.270;2023-04-24T09:14:38;37.87;;;33.47;;
3633;SDS011;1833;42.718;23.270;2023-04-24T09:17:10;36.47;;;32.53;;
3633;SDS011;1833;42.718;23.270;2023-04-24T09:19:37;40.43;;;30.60;;
3633;SDS011;1833;42.718;23.270;2023-04-24T09:22:04;33.10;;;29.90;;
3633;SDS011;1833;42.718;23.270;2023-04-24T09:24:33;49.53;;;29.63;;
3633;SDS011;1833;42.718;23.270;2023-04-24T09:27:02;32.13;;;29.10;;
3633;SDS011;1833;42.718;23.270;2023-04-24T09:29:29;32.20;;;28.83;;
3633;SDS011;1833;42.718;23.270;2023-04-24T09:31:58;33.73;;;28.47;;
3633;SDS011;1833;42.718;23.270;2023-04-24T09:34:26;33.43;;;30.23;;
3633;SDS011;1833;42.718;23.270;2023-04-24T09:36:53;31.37;;;28.23;;
3633;SDS011;1833;42.718;23.270;2023-04-24T09:39:21;33.00;;;30.00;;
3633;SDS011;1833;42.718;23.270;2023-04-24T09:41:48;33.57;;;29.97;;
3633;SDS011;1833;42.718;23.270;2023-04-24T09:44:18;33.90;;;29.23;;
3633;SDS011;1833;42.718;23.270;2023-04-24T09:46:48;31.87;;;28.87;;
3633;SDS011;1833;42.718;23.270;2023-04-24T09:49:16;31.77;;;28.87;;
3633;SDS011;1833;42.718;23.270;2023-04-24T09:51:44;33.40;;;29.70;;
3633;SDS011;1833;42.718;23.270;2023-04-24T09:54:13;31.47;;;28.37;;
3633;SDS011;1833;42.718;23.270;2023-04-24T09:56:42;32.50;;;29.00;;
3633;SDS011;1833;42.718;23.270;2023-04-24T09:59:10;32.37;;;29.10;;
3633;SDS011;1833;42.718;23.270;2023-04-24T10:01:38;32.17;;;28.93;;
3633;SDS011;1833;42.718;23.270;2023-04-24T10:04:18;32.57;;;29.10;;
3633;SDS011;1833;42.718;23.270;2023-04-24T10:06:46;35.27;;;30.17;;
3633;SDS011;1833;42.718;23.270;2023-04-24T10:09:14;32.90;;;29.60;;
3633;SDS011;1833;42.718;23.270;2023-04-24T10:11:42;32.50;;;29.40;;
3633;SDS011;1833;42.718;23.270;2023-04-24T10:14:11;33.43;;;30.33;;
3633;SDS011;1833;42.718;23.270;2023-04-24T10:16:40;32.87;;;29.60;;
3633;SDS011;1833;42.718;23.270;2023-04-24T10:19:09;33.90;;;30.70;;
3633;SDS011;1833;42.718;23.270;2023-04-24T10:21:38;34.17;;;30.70;;
3633;SDS011;1833;42.718;23.270;2023-04-24T10:24:11;33.10;;;29.90;;
3633;SDS011;1833;42.718;23.270;2023-04-24T10:26:39;33.80;;;30.47;;
3633;SDS011;1833;42.718;23.270;2023-04-24T10:29:07;34.80;;;31.10;;
3633;SDS011;1833;42.718;23.270;2023-04-24T10:31:37;38.67;;;32.20;;
3633;SDS011;1833;42.718;23.270;2023-04-24T10:34:06;35.77;;;31.27;;
3633;SDS011;1833;42.718;23.270;2023-04-24T10:36:33;32.87;;;29.57;;
3633;SDS011;1833;42.718;23.270;2023-04-24T10:39:02;32.53;;;29.23;;
3633;SDS011;1833;42.718;23.270;2023-04-24T10:41:30;32.83;;;29.20;;
3633;SDS011;1833;42.718;23.270;2023-04-24T10:44:03;32.70;;;29.40;;
3633;SDS011;1833;42.718;23.270;2023-04-24T10:46:31;32.70;;;29.43;;
3633;SDS011;1833;42.718;23.270;2023-04-24T10:48:59;33.13;;;29.13;;
3633;SDS011;1833;42.718;23.270;2023-04-24T10:54:28;31.20;;;28.23;;
3633;SDS011;1833;42.718;23.270;2023-04-24T10:59:37;34.00;;;29.03;;
3633;SDS011;1833;42.718;23.270;2023-04-24T11:02:05;30.90;;;28.20;;
3633;SDS011;1833;42.718;23.270;2023-04-24T11:04:34;32.03;;;28.70;;
3633;SDS011;1833;42.718;23.270;2023-04-24T11:07:02;31.97;;;28.93;;
3633;SDS011;1833;42.718;23.270;2023-04-24T11:09:31;31.87;;;28.73;;
3633;SDS011;1833;42.718;23.270;2023-04-24T11:12:04;32.33;;;29.03;;
3633;SDS011;1833;42.718;23.270;2023-04-24T11:17:26;44.83;;;30.07;;
3633;SDS011;1833;42.718;23.270;2023-04-24T11:19:54;40.27;;;29.10;;
3633;SDS011;1833;42.718;23.270;2023-04-24T11:22:28;66.97;;;51.60;;
3633;SDS011;1833;42.718;23.270;2023-04-24T11:24:59;54.60;;;45.70;;
3633;SDS011;1833;42.718;23.270;2023-04-24T11:27:29;53.83;;;48.03;;
3633;SDS011;1833;42.718;23.270;2023-04-24T11:30:00;54.10;;;44.30;;
3633;SDS011;1833;42.718;23.270;2023-04-24T11:32:28;54.17;;;45.67;;
3633;SDS011;1833;42.718;23.270;2023-04-24T11:34:56;42.27;;;38.07;;
3633;SDS011;1833;42.718;23.270;2023-04-24T11:37:25;39.17;;;35.27;;
3633;SDS011;1833;42.718;23.270;2023-04-24T11:39:53;37.67;;;33.87;;
3633;SDS011;1833;42.718;23.270;2023-04-24T11:42:23;35.13;;;31.70;;
3633;SDS011;1833;42.718;23.270;2023-04-24T11:44:51;35.23;;;31.63;;
3633;SDS011;1833;42.718;23.270;2023-04-24T11:47:19;34.47;;;31.07;;
3633;SDS011;1833;42.718;23.270;2023-04-24T11:49:49;36.90;;;33.50;;
3633;SDS011;1833;42.718;23.270;2023-04-24T11:52:19;36.33;;;32.73;;
3633;SDS011;1833;42.718;23.270;2023-04-24T11:54:47;42.13;;;38.50;;
3633;SDS011;1833;42.718;23.270;2023-04-24T11:57:14;38.10;;;34.47;;
3633;SDS011;1833;42.718;23.270;2023-04-24T11:59:43;37.67;;;34.03;;
3633;SDS011;1833;42.718;23.270;2023-04-24T12:02:19;37.60;;;34.20;;
3633;SDS011;1833;42.718;23.270;2023-04-24T12:04:47;36.40;;;33.10;;
3633;SDS011;1833;42.718;23.270;2023-04-24T12:07:14;38.33;;;34.50;;
3633;SDS011;1833;42.718;23.270;2023-04-24T12:09:42;35.97;;;32.37;;
3633;SDS011;1833;42.718;23.270;2023-04-24T12:12:10;36.00;;;32.23;;
3633;SDS011;1833;42.718;23.270;2023-04-24T12:14:46;36.83;;;33.53;;
3633;SDS011;1833;42.718;23.270;2023-04-24T12:17:14;37.77;;;33.03;;
3633;SDS011;1833;42.718;23.270;2023-04-24T12:19:45;36.10;;;32.50;;
3633;SDS011;1833;42.718;23.270;2023-04-24T12:22:12;35.53;;;32.17;;
3633;SDS011;1833;42.718;23.270;2023-04-24T12:27:21;33.60;;;30.00;;
3633;SDS011;1833;42.718;23.270;2023-04-24T12:29:53;33.30;;;30.20;;
3633;SDS011;1833;42.718;23.270;2023-04-24T12:32:22;32.87;;;30.07;;
3633;SDS011;1833;42.718;23.270;2023-04-24T12:34:50;35.10;;;31.60;;
3633;SDS011;1833;42.718;23.270;2023-04-24T12:37:17;33.83;;;30.60;;
3633;SDS011;1833;42.718;23.270;2023-04-24T12:39:57;33.83;;;30.83;;
3633;SDS011;1833;42.718;23.270;2023-04-24T12:42:25;32.10;;;29.03;;
3633;SDS011;1833;42.718;23.270;2023-04-24T12:44:57;30.70;;;28.00;;
3633;SDS011;1833;42.718;23.270;2023-04-24T12:47:26;31.23;;;28.43;;
3633;SDS011;1833;42.718;23.270;2023-04-24T12:49:53;33.33;;;30.43;;
3633;SDS011;1833;42.718;23.270;2023-04-24T12:52:20;33.40;;;30.10;;
3633;SDS011;1833;42.718;23.270;2023-04-24T12:54:48;31.23;;;28.03;;
3633;SDS011;1833;42.718;23.270;2023-04-24T12:57:16;32.63;;;29.50;;
3633;SDS011;1833;42.718;23.270;2023-04-24T12:59:43;33.40;;;30.40;;
3633;SDS011;1833;42.718;23.270;2023-04-24T13:02:12;33.10;;;29.80;;
3633;SDS011;1833;42.718;23.270;2023-04-24T13:04:42;34.77;;;30.60;;
3633;SDS011;1833;42.718;23.270;2023-04-24T13:07:10;32.57;;;29.60;;
3633;SDS011;1833;42.718;23.270;2023-04-24T13:09:37;33.90;;;30.60;;
3633;SDS011;1833;42.718;23.270;2023-04-24T13:12:05;32.60;;;29.83;;
3633;SDS011;1833;42.718;23.270;2023-04-24T13:14:32;32.40;;;29.10;;
3633;SDS011;1833;42.718;23.270;2023-04-24T13:16:59;33.70;;;30.23;;
3633;SDS011;1833;42.718;23.270;2023-04-24T13:19:29;32.50;;;29.60;;
3633;SDS011;1833;42.718;23.270;2023-04-24T13:21:56;33.20;;;30.30;;
3633;SDS011;1833;42.718;23.270;2023-04-24T13:24:24;32.70;;;29.53;;
3633;SDS011;1833;42.718;23.270;2023-04-24T13:26:51;32.83;;;29.90;;
3633;SDS011;1833;42.718;23.270;2023-04-24T13:29:19;33.83;;;30.93;;
3633;SDS011;1833;42.718;23.270;2023-04-24T13:31:46;32.90;;;30.10;;
3633;SDS011;1833;42.718;23.270;2023-04-24T13:34:14;31.10;;;28.10;;
3633;SDS011;1833;42.718;23.270;2023-04-24T13:36:43;32.40;;;29.50;;
3633;SDS011;1833;42.718;23.270;2023-04-24T13:39:11;32.10;;;29.20;;
3633;SDS011;1833;42.718;23.270;2023-04-24T13:41:38;34.50;;;31.50;;
3633;SDS011;1833;42.718;23.270;2023-04-24T13:44:06;58.33;;;32.57;;
3633;SDS011;1833;42.718;23.270;2023-04-24T13:46:33;33.00;;;30.10;;
3633;SDS011;1833;42.718;23.270;2023-04-24T13:49:01;35.00;;;31.00;;
3633;SDS011;1833;42.718;23.270;2023-04-24T13:51:29;34.67;;;31.50;;
3633;SDS011;1833;42.718;23.270;2023-04-24T13:53:58;34.87;;;31.77;;
3633;SDS011;1833;42.718;23.270;2023-04-24T13:56:26;33.63;;;30.47;;
3633;SDS011;1833;42.718;23.270;2023-04-24T13:58:53;34.07;;;31.07;;
3633;SDS011;1833;42.718;23.270;2023-04-24T14:01:20;31.90;;;29.10;;
3633;SDS011;1833;42.718;23.270;2023-04-24T14:03:49;31.20;;;28.43;;
3633;SDS011;1833;42.718;23.270;2023-04-24T14:06:17;33.77;;;30.77;;
3633;SDS011;1833;42.718;23.270;2023-04-24T14:08:44;34.47;;;31.43;;
3633;SDS011;1833;42.718;23.270;2023-04-24T14:11:13;31.10;;;28.40;;
3633;SDS011;1833;42.718;23.270;2023-04-24T14:13:40;32.10;;;29.00;;
3633;SDS011;1833;42.718;23.270;2023-04-24T14:16:08;33.33;;;29.73;;
3633;SDS011;1833;42.718;23.270;2023-04-24T14:18:36;35.50;;;31.83;;
3633;SDS011;1833;42.718;23.270;2023-04-24T14:21:03;33.20;;;30.20;;
3633;SDS011;1833;42.718;23.270;2023-04-24T14:23:30;33.30;;;30.30;;
3633;SDS011;1833;42.718;23.270;2023-04-24T14:25:58;33.67;;;30.53;;
3633;SDS011;1833;42.718;23.270;2023-04-24T14:28:27;33.53;;;29.30;;
3633;SDS011;1833;42.718;23.270;2023-04-24T14:30:54;32.07;;;29.07;;
3633;SDS011;1833;42.718;23.270;2023-04-24T14:33:21;33.57;;;30.50;;
3633;SDS011;1833;42.718;23.270;2023-04-24T14:35:49;33.00;;;29.50;;
3633;SDS011;1833;42.718;23.270;2023-04-24T14:38:16;33.10;;;30.00;;
3633;SDS011;1833;42.718;23.270;2023-04-24T14:40:43;33.70;;;30.40;;
3633;SDS011;1833;42.718;23.270;2023-04-24T14:43:11;33.20;;;30.30;;
3633;SDS011;1833;42.718;23.270;2023-04-24T14:45:41;32.80;;;29.80;;
3633;SDS011;1833;42.718;23.270;2023-04-24T14:48:08;33.60;;;29.80;;